Terminal Aerodrome Forecast
Issued by NWS Sioux Falls, SD

Home | Current Version | Previous Version | Text Only | Print | Product List | Glossary On
Versions: 1 2 3 4 5 6 7 8 9 10 11 12 13 14 15
000
FTUS43 KFSD 280520
TAFFSD
TAF
KFSD 280520Z 2806/2906 28012KT P6SM SKC
     FM281000 28014KT P6SM BKN035
     FM281300 29018G25KT P6SM OVC030
     FM281800 30014G22KT P6SM BKN035
     FM290000 29010KT P6SM SCT040=

USA.gov is the U.S. government's official web portal to all federal, state and local government web resources and services.